createdAt,value
2022-08-25T00:00:21.140Z,5.22
2022-08-25T00:02:55.545Z,5.07
2022-08-25T00:07:57.627Z,5.43
2022-08-25T00:10:25.596Z,5.53
2022-08-25T00:12:53.520Z,4.82
2022-08-25T00:15:22.883Z,6.03
2022-08-25T00:17:52.294Z,5.63
2022-08-25T00:20:20.126Z,6.50
2022-08-25T00:22:48.955Z,5.68
2022-08-25T00:25:18.181Z,5.53
2022-08-25T00:27:47.563Z,5.30
2022-08-25T00:30:16.779Z,5.32
2022-08-25T00:32:55.293Z,6.25
2022-08-25T00:35:26.613Z,5.78
2022-08-25T00:37:54.720Z,6.25
2022-08-25T00:40:25.658Z,5.60
2022-08-25T00:42:54.478Z,6.20
2022-08-25T00:45:23.826Z,5.30
2022-08-25T00:47:51.673Z,5.40
2022-08-25T00:50:22.658Z,4.80
2022-08-25T00:52:57.702Z,4.95
2022-08-25T00:55:39.409Z,5.28
2022-08-25T00:58:14.117Z,5.05
2022-08-25T01:00:49.705Z,6.33
2022-08-25T01:05:48.046Z,5.68
2022-08-25T01:08:21.259Z,6.18
2022-08-25T01:10:50.981Z,7.60
2022-08-25T01:13:26.379Z,6.05
2022-08-25T01:15:57.090Z,6.18
2022-08-25T01:18:25.642Z,6.03
2022-08-25T01:20:55.609Z,5.88
2022-08-25T01:23:24.843Z,5.63
2022-08-25T01:25:57.334Z,5.90
2022-08-25T01:28:25.128Z,6.20
2022-08-25T01:30:53.007Z,5.43
2022-08-25T01:33:20.903Z,5.97
2022-08-25T01:35:48.551Z,5.20
2022-08-25T01:38:16.699Z,5.70
2022-08-25T01:40:45.110Z,5.45
2022-08-25T01:43:16.262Z,6.07
2022-08-25T01:45:47.308Z,6.00
2022-08-25T01:48:16.301Z,5.93
2022-08-25T01:50:44.230Z,5.43
2022-08-25T01:53:27.998Z,5.50
2022-08-25T01:56:02.609Z,5.65
2022-08-25T01:58:34.216Z,5.85
2022-08-25T02:01:08.726Z,5.93
2022-08-25T02:03:42.517Z,5.78
2022-08-25T02:06:17.312Z,7.72
2022-08-25T02:08:45.252Z,8.52
2022-08-25T02:11:14.928Z,9.00
2022-08-25T02:13:43.151Z,8.38
2022-08-25T02:16:21.719Z,7.65
2022-08-25T02:18:49.447Z,7.90
2022-08-25T02:21:17.255Z,8.10
2022-08-25T02:23:45.386Z,9.10
2022-08-25T02:26:16.887Z,9.20
2022-08-25T02:28:47.995Z,10.10
2022-08-25T02:31:18.141Z,11.15
2022-08-25T02:33:46.000Z,9.23
2022-08-25T02:36:14.012Z,9.23
2022-08-25T02:38:41.800Z,8.70
2022-08-25T02:41:15.881Z,9.13
2022-08-25T02:43:44.471Z,8.63
2022-08-25T02:46:13.187Z,7.90
2022-08-25T02:48:41.591Z,7.05
2022-08-25T02:51:10.704Z,10.75
2022-08-25T02:53:40.542Z,9.75
2022-08-25T02:56:10.598Z,11.20
2022-08-25T02:58:40.287Z,10.05
2022-08-25T03:01:11.981Z,9.40
2022-08-25T03:03:42.172Z,9.35
2022-08-25T03:06:13.689Z,9.20
2022-08-25T03:08:42.845Z,8.60
2022-08-25T03:11:11.464Z,8.30
2022-08-25T03:13:40.183Z,9.13
2022-08-25T03:16:11.277Z,9.77
2022-08-25T03:18:41.309Z,9.25
2022-08-25T03:21:12.173Z,10.30
2022-08-25T03:23:41.310Z,9.10
2022-08-25T03:26:28.265Z,9.52
2022-08-25T03:28:56.050Z,8.27
2022-08-25T03:31:28.065Z,8.10
2022-08-25T03:33:56.130Z,8.68
2022-08-25T03:36:24.946Z,9.90
2022-08-25T03:38:53.271Z,11.18
2022-08-25T03:41:29.132Z,11.32
2022-08-25T03:43:57.637Z,11.63
2022-08-25T03:46:41.938Z,9.27
2022-08-25T03:49:12.544Z,10.93
2022-08-25T03:51:47.393Z,12.32
2022-08-25T03:54:19.022Z,10.57
2022-08-25T03:56:46.701Z,9.93
2022-08-25T03:59:14.630Z,9.43
2022-08-25T04:01:44.948Z,9.82
2022-08-25T04:04:15.420Z,12.68
2022-08-25T04:06:44.475Z,11.20
2022-08-25T04:09:12.657Z,10.75
2022-08-25T04:11:40.512Z,11.27
2022-08-25T04:14:13.005Z,11.65
2022-08-25T04:16:45.892Z,12.50
2022-08-25T04:19:13.866Z,12.52
2022-08-25T04:21:42.119Z,12.13
2022-08-25T04:24:13.082Z,10.27
2022-08-25T04:26:48.745Z,11.20
2022-08-25T04:31:52.687Z,10.85
2022-08-25T04:34:29.367Z,10.88
2022-08-25T04:37:02.640Z,10.45
2022-08-25T04:39:30.864Z,9.68
2022-08-25T04:42:00.552Z,9.32
2022-08-25T04:44:30.180Z,9.88
2022-08-25T04:46:58.803Z,10.40
2022-08-25T04:49:27.281Z,10.40
2022-08-25T04:51:56.301Z,10.18
2022-08-25T04:54:24.025Z,9.82
2022-08-25T04:56:54.559Z,10.65
2022-08-25T04:59:29.386Z,9.60
2022-08-25T05:02:02.671Z,10.55
2022-08-25T05:04:32.866Z,9.98
2022-08-25T05:07:01.637Z,10.80
2022-08-25T05:09:32.473Z,10.43
2022-08-25T05:12:02.893Z,9.93
2022-08-25T05:14:32.213Z,12.10
2022-08-25T05:17:00.266Z,11.60
2022-08-25T05:19:27.982Z,10.05
2022-08-25T05:21:57.647Z,10.98
2022-08-25T05:24:26.686Z,11.25
2022-08-25T05:26:54.616Z,12.15
2022-08-25T05:29:22.621Z,12.25
2022-08-25T05:31:50.999Z,11.65
2022-08-25T05:34:19.802Z,10.30
2022-08-25T05:36:48.676Z,11.32
2022-08-25T05:39:16.419Z,10.35
2022-08-25T05:41:44.170Z,11.18
2022-08-25T05:44:12.909Z,10.60
2022-08-25T05:46:40.719Z,13.20
2022-08-25T05:49:08.366Z,9.80
2022-08-25T05:51:36.105Z,11.23
2022-08-25T05:54:04.004Z,11.65
2022-08-25T05:56:31.728Z,12.02
2022-08-25T05:58:59.465Z,13.38
2022-08-25T06:01:48.522Z,10.05
2022-08-25T06:04:18.010Z,12.98
2022-08-25T06:06:45.635Z,12.05
2022-08-25T06:09:13.436Z,12.23
2022-08-25T06:11:41.862Z,11.68
2022-08-25T06:14:10.873Z,11.25
2022-08-25T06:16:39.643Z,10.70
2022-08-25T06:19:10.225Z,13.38
2022-08-25T06:21:41.421Z,14.02
2022-08-25T06:24:14.823Z,13.32
2022-08-25T06:26:44.300Z,13.38
2022-08-25T06:29:14.256Z,11.63
2022-08-25T06:31:43.164Z,10.32
2022-08-25T06:34:11.972Z,9.18
2022-08-25T06:36:40.762Z,13.32
2022-08-25T06:39:10.601Z,9.90
2022-08-25T06:41:39.089Z,10.13
2022-08-25T06:44:06.907Z,9.07
2022-08-25T06:46:36.303Z,7.80
2022-08-25T06:49:06.754Z,9.45
2022-08-25T06:51:38.374Z,7.57
2022-08-25T06:54:07.581Z,9.52
2022-08-25T06:56:36.096Z,11.73
2022-08-25T06:59:06.094Z,11.77
2022-08-25T07:01:34.724Z,11.73
2022-08-25T07:04:10.390Z,13.57
2022-08-25T07:06:41.687Z,16.02
2022-08-25T07:09:11.282Z,11.18
2022-08-25T07:11:41.302Z,12.60
2022-08-25T07:14:12.200Z,10.52
2022-08-25T07:16:41.745Z,13.27
2022-08-25T07:19:16.526Z,10.10
2022-08-25T07:21:46.910Z,11.45
2022-08-25T07:24:15.063Z,9.68
2022-08-25T07:26:43.761Z,11.32
2022-08-25T07:29:20.439Z,9.30
2022-08-25T07:32:05.908Z,11.82
2022-08-25T07:34:52.892Z,9.20
2022-08-25T07:37:48.186Z,9.73
2022-08-25T07:40:22.399Z,9.40
2022-08-25T07:42:53.802Z,8.45
2022-08-25T07:45:30.182Z,7.72
2022-08-25T07:48:04.601Z,8.75
2022-08-25T07:50:34.148Z,9.75
2022-08-25T07:53:02.183Z,8.45
2022-08-25T07:55:30.513Z,7.38
2022-08-25T07:57:59.871Z,6.90
2022-08-25T08:00:30.292Z,6.53
2022-08-25T08:02:59.681Z,5.93
2022-08-25T08:05:28.705Z,5.15
2022-08-25T08:07:56.788Z,5.65
2022-08-25T08:10:47.767Z,5.95
2022-08-25T08:13:18.054Z,5.60
2022-08-25T08:15:47.592Z,5.18
2022-08-25T08:18:15.995Z,4.72
2022-08-25T08:20:47.336Z,4.22
2022-08-25T08:23:17.028Z,4.47
2022-08-25T08:25:44.687Z,5.03
2022-08-25T08:28:14.941Z,4.10
2022-08-25T08:30:53.013Z,3.33
2022-08-25T08:33:23.621Z,4.65
2022-08-25T08:36:11.051Z,4.57
2022-08-25T08:38:49.225Z,3.70
2022-08-25T08:45:02.777Z,3.50
2022-08-25T08:47:58.315Z,3.22
2022-08-25T08:50:56.645Z,3.65
2022-08-25T08:53:49.573Z,3.25
2022-08-25T08:56:24.403Z,3.90
2022-08-25T08:59:06.384Z,3.42
2022-08-25T09:01:45.514Z,3.20
2022-08-25T09:04:40.101Z,3.40
2022-08-25T09:07:16.479Z,3.10
2022-08-25T09:09:45.516Z,2.63
2022-08-25T09:12:41.454Z,2.78
2022-08-25T09:16:33.915Z,2.60
2022-08-25T09:19:32.194Z,2.67
2022-08-25T09:22:35.362Z,2.70
2022-08-25T09:25:55.281Z,2.50
2022-08-25T09:28:32.988Z,2.50
2022-08-25T09:31:08.833Z,2.72
2022-08-25T09:33:36.543Z,2.42
2022-08-25T09:36:06.392Z,2.03
2022-08-25T09:38:37.482Z,2.60
2022-08-25T09:41:07.449Z,2.80
2022-08-25T09:43:53.811Z,2.30
2022-08-25T09:49:11.563Z,2.33
2022-08-25T09:51:43.669Z,2.55
2022-08-25T09:54:15.355Z,2.78
2022-08-25T09:56:59.423Z,2.80
2022-08-25T09:59:36.263Z,2.50
2022-08-25T10:02:25.827Z,2.58
2022-08-25T10:04:54.539Z,2.45
2022-08-25T10:07:32.211Z,2.30
2022-08-25T10:10:16.705Z,2.80
2022-08-25T10:12:51.152Z,3.10
2022-08-25T10:15:39.748Z,2.40
2022-08-25T10:18:25.768Z,3.17
2022-08-25T10:21:19.033Z,2.42
2022-08-25T10:23:52.612Z,2.60
2022-08-25T10:26:35.233Z,2.80
2022-08-25T10:29:12.162Z,2.35
2022-08-25T10:31:56.543Z,2.53
2022-08-25T10:34:51.377Z,2.58
2022-08-25T10:37:32.687Z,2.55
2022-08-25T10:40:12.931Z,2.58
2022-08-25T10:43:28.989Z,2.83
2022-08-25T10:46:37.410Z,2.40
2022-08-25T10:49:34.352Z,2.60
2022-08-25T10:52:15.656Z,2.58
2022-08-25T10:55:17.508Z,2.85
2022-08-25T10:58:23.177Z,3.25
2022-08-25T11:01:08.499Z,2.97
2022-08-25T11:03:52.087Z,3.00
2022-08-25T11:06:33.783Z,3.47
2022-08-25T11:09:07.525Z,3.40
2022-08-25T11:11:50.433Z,4.28
2022-08-25T11:14:57.483Z,4.18
2022-08-25T11:18:20.773Z,3.53
2022-08-25T11:21:08.155Z,9.07
2022-08-25T11:23:55.901Z,9.68
2022-08-25T11:26:36.633Z,9.48
2022-08-25T11:29:19.027Z,7.35
2022-08-25T11:31:53.582Z,9.85
2022-08-25T11:34:23.212Z,8.50
2022-08-25T11:37:01.068Z,10.77
2022-08-25T11:39:41.234Z,14.20
2022-08-25T11:42:38.873Z,13.80
2022-08-25T11:45:39.963Z,13.13
2022-08-25T11:48:34.949Z,16.60
2022-08-25T11:51:13.013Z,15.85
2022-08-25T11:53:43.016Z,10.93
2022-08-25T11:56:31.719Z,12.00
2022-08-25T11:59:00.597Z,13.52
2022-08-25T12:01:40.520Z,11.90
2022-08-25T12:04:16.234Z,18.45
2022-08-25T12:07:06.265Z,13.02
2022-08-25T12:09:54.985Z,13.40
2022-08-25T12:12:41.535Z,14.07
2022-08-25T12:15:31.578Z,13.60
2022-08-25T12:18:22.794Z,13.55
2022-08-25T12:20:53.636Z,16.75
2022-08-25T12:23:44.950Z,15.05
2022-08-25T12:26:34.297Z,15.95
2022-08-25T12:29:21.399Z,13.05
2022-08-25T12:32:47.632Z,16.42
2022-08-25T12:35:32.686Z,15.43
2022-08-25T12:38:05.732Z,13.48
2022-08-25T12:40:42.712Z,14.70
2022-08-25T12:43:37.505Z,16.95
2022-08-25T12:46:25.809Z,13.15
2022-08-25T12:49:00.321Z,17.95
2022-08-25T12:51:39.912Z,19.87
2022-08-25T12:54:33.067Z,15.70
2022-08-25T12:57:19.678Z,19.30
2022-08-25T12:59:59.987Z,17.60
2022-08-25T13:02:52.162Z,19.75
2022-08-25T13:05:25.975Z,14.43
2022-08-25T13:08:44.759Z,16.83
2022-08-25T13:11:25.879Z,18.35
2022-08-25T13:14:04.648Z,19.75
2022-08-25T13:16:33.802Z,20.63
2022-08-25T13:19:06.889Z,19.85
2022-08-25T13:21:42.385Z,19.52
2022-08-25T13:26:49.001Z,27.05
2022-08-25T13:29:23.284Z,27.52
2022-08-25T13:32:04.633Z,24.95
2022-08-25T13:34:42.884Z,27.90
2022-08-25T13:37:30.387Z,28.73
2022-08-25T13:40:20.210Z,32.97
2022-08-25T13:43:05.509Z,28.35
2022-08-25T13:45:42.050Z,26.38
2022-08-25T13:48:23.157Z,22.55
2022-08-25T13:51:31.263Z,20.88
2022-08-25T13:54:07.146Z,19.75
2022-08-25T13:59:40.252Z,16.10
2022-08-25T14:02:19.257Z,17.00
2022-08-25T14:04:51.969Z,14.70
2022-08-25T14:07:20.908Z,12.57
2022-08-25T14:09:58.438Z,13.10
2022-08-25T14:12:39.492Z,11.52
2022-08-25T14:15:20.107Z,10.25
2022-08-25T14:18:02.541Z,10.43
2022-08-25T14:20:33.391Z,10.02
2022-08-25T14:23:12.882Z,9.23
2022-08-25T14:25:44.218Z,10.77
2022-08-25T14:28:20.373Z,9.05
2022-08-25T14:31:18.823Z,8.02
2022-08-25T14:33:56.996Z,7.78
2022-08-25T14:36:25.516Z,7.97
2022-08-25T14:38:55.212Z,6.97
2022-08-25T14:41:26.368Z,8.13
2022-08-25T14:43:54.185Z,8.45
2022-08-25T14:46:25.381Z,7.95
2022-08-25T14:49:03.304Z,7.13
2022-08-25T14:51:32.623Z,7.20
2022-08-25T14:54:05.892Z,7.00
2022-08-25T14:56:34.407Z,6.63
2022-08-25T14:59:02.454Z,9.00
2022-08-25T15:01:32.716Z,8.88
2022-08-25T15:04:13.291Z,7.15
2022-08-25T15:06:44.377Z,8.75
2022-08-25T15:09:16.374Z,9.52
2022-08-25T15:11:55.079Z,7.95
2022-08-25T15:14:28.755Z,8.82
2022-08-25T15:17:02.389Z,8.63
2022-08-25T15:19:30.312Z,8.82
2022-08-25T15:21:59.353Z,7.55
2022-08-25T15:24:28.764Z,7.78
2022-08-25T15:27:02.488Z,8.35
2022-08-25T15:29:34.806Z,7.05
2022-08-25T15:32:07.258Z,6.40
2022-08-25T15:34:36.032Z,7.00
2022-08-25T15:37:21.925Z,6.32
2022-08-25T15:42:17.309Z,6.50
2022-08-25T15:44:53.173Z,6.88
2022-08-25T15:47:25.323Z,5.63
2022-08-25T15:50:14.617Z,5.55
2022-08-25T15:52:47.587Z,4.45
2022-08-25T15:55:17.683Z,4.78
2022-08-25T15:57:47.953Z,4.00
2022-08-25T16:00:18.833Z,4.45
2022-08-25T16:02:46.792Z,3.90
2022-08-25T16:05:16.370Z,3.75
2022-08-25T16:07:47.860Z,3.47
2022-08-25T16:10:19.821Z,3.28
2022-08-25T16:12:47.849Z,3.97
2022-08-25T16:15:16.117Z,3.85
2022-08-25T16:17:45.971Z,3.17
2022-08-25T16:20:17.878Z,3.50
2022-08-25T16:22:46.421Z,3.33
2022-08-25T16:25:14.967Z,3.65
2022-08-25T16:27:45.586Z,2.88
2022-08-25T16:30:17.789Z,3.00
2022-08-25T16:32:46.888Z,3.10
2022-08-25T16:35:15.461Z,3.00
2022-08-25T16:37:43.095Z,2.97
2022-08-25T16:40:14.711Z,2.65
2022-08-25T16:42:42.852Z,2.65
2022-08-25T16:45:11.803Z,2.63
2022-08-25T16:47:39.662Z,2.15
2022-08-25T16:50:10.933Z,2.40
2022-08-25T16:52:59.359Z,2.63
2022-08-25T16:55:38.767Z,2.10
2022-08-25T16:58:13.437Z,2.00
2022-08-25T17:00:41.545Z,1.65
2022-08-25T17:03:13.122Z,2.10
2022-08-25T17:05:43.240Z,1.52
2022-08-25T17:08:31.107Z,1.80
2022-08-25T17:11:17.999Z,1.65
2022-08-25T17:13:57.321Z,1.33
2022-08-25T17:16:30.130Z,1.20
2022-08-25T17:19:02.709Z,1.27
2022-08-25T17:21:37.735Z,1.25
2022-08-25T17:26:33.770Z,1.42
2022-08-25T17:29:02.160Z,1.80
2022-08-25T17:31:30.878Z,1.50
2022-08-25T17:33:59.666Z,1.20
2022-08-25T17:36:27.671Z,1.30
2022-08-25T17:38:57.045Z,1.25
2022-08-25T17:41:25.353Z,1.15
2022-08-25T17:43:52.985Z,1.30
2022-08-25T17:46:21.770Z,1.10
2022-08-25T17:48:49.454Z,1.65
2022-08-25T17:51:17.144Z,1.38
2022-08-25T17:53:44.919Z,1.13
2022-08-25T17:56:17.790Z,1.30
2022-08-25T17:58:47.344Z,1.25
2022-08-25T18:01:19.411Z,1.27
2022-08-25T18:03:50.323Z,1.50
2022-08-25T18:06:20.521Z,1.23
2022-08-25T18:08:53.670Z,1.13
2022-08-25T18:11:24.715Z,1.17
2022-08-25T18:13:53.783Z,1.05
2022-08-25T18:16:22.800Z,1.42
2022-08-25T18:18:54.482Z,1.10
2022-08-25T18:21:25.280Z,0.95
2022-08-25T18:23:58.802Z,1.10
2022-08-25T18:26:26.571Z,0.98
2022-08-25T18:28:54.230Z,3.53
2022-08-25T18:31:22.349Z,1.00
2022-08-25T18:33:50.869Z,1.02
2022-08-25T18:36:21.070Z,1.00
2022-08-25T18:39:07.934Z,1.20
2022-08-25T18:41:42.736Z,1.33
2022-08-25T18:44:15.419Z,1.55
2022-08-25T18:46:45.426Z,1.20
2022-08-25T18:49:15.925Z,1.17
2022-08-25T18:51:45.576Z,1.00
2022-08-25T18:54:23.017Z,1.15
2022-08-25T18:56:54.661Z,1.02
2022-08-25T18:59:23.511Z,0.88
2022-08-25T19:02:10.668Z,0.91
2022-08-25T19:04:40.960Z,0.70
2022-08-25T19:07:09.992Z,0.93
2022-08-25T19:09:37.827Z,0.80
2022-08-25T19:12:06.027Z,1.05
2022-08-25T19:14:39.679Z,1.23
2022-08-25T19:17:09.076Z,0.90
2022-08-25T19:19:37.105Z,0.70
2022-08-25T19:22:06.681Z,1.05
2022-08-25T19:24:35.352Z,1.00
2022-08-25T19:27:03.291Z,0.75
2022-08-25T19:29:31.624Z,1.38
2022-08-25T19:32:01.882Z,1.13
2022-08-25T19:34:38.115Z,1.00
2022-08-25T19:37:07.144Z,0.80
2022-08-25T19:39:39.420Z,0.70
2022-08-25T19:42:35.231Z,1.13
2022-08-25T19:44:58.918Z,1.00
2022-08-25T19:47:27.228Z,1.00
2022-08-25T19:49:55.546Z,0.93
2022-08-25T19:52:24.925Z,2.45
2022-08-25T19:54:54.568Z,1.50
2022-08-25T19:57:28.650Z,1.00
2022-08-25T20:00:20.420Z,1.27
2022-08-25T20:02:48.666Z,1.38
2022-08-25T20:05:23.794Z,1.20
2022-08-25T20:07:54.690Z,1.30
2022-08-25T20:10:26.847Z,1.17
2022-08-25T20:12:56.103Z,1.00
2022-08-25T20:15:23.991Z,1.25
2022-08-25T20:17:51.947Z,1.63
2022-08-25T20:20:24.856Z,1.15
2022-08-25T20:22:53.241Z,1.40
2022-08-25T20:25:26.538Z,1.30
2022-08-25T20:28:04.315Z,1.40
2022-08-25T20:30:31.962Z,1.85
2022-08-25T20:32:59.994Z,1.52
2022-08-25T20:35:29.227Z,1.48
2022-08-25T20:37:58.772Z,1.45
2022-08-25T20:40:30.126Z,2.30
2022-08-25T20:43:03.079Z,1.60
2022-08-25T20:45:31.231Z,1.95
2022-08-25T20:47:59.211Z,2.22
2022-08-25T20:50:27.067Z,1.70
2022-08-25T20:52:56.715Z,2.00
2022-08-25T20:55:25.174Z,1.70
2022-08-25T20:57:54.274Z,1.60
2022-08-25T21:00:24.684Z,1.42
2022-08-25T21:02:53.453Z,1.38
2022-08-25T21:05:21.503Z,1.13
2022-08-25T21:07:49.245Z,1.67
2022-08-25T21:10:17.400Z,1.10
2022-08-25T21:12:45.215Z,1.00
2022-08-25T21:15:18.069Z,1.20
2022-08-25T21:17:54.420Z,1.80
2022-08-25T21:20:24.335Z,1.00
2022-08-25T21:22:53.427Z,1.27
2022-08-25T21:25:21.738Z,1.00
2022-08-25T21:27:49.414Z,0.90
2022-08-25T21:30:18.137Z,1.20
2022-08-25T21:32:53.326Z,1.23
2022-08-25T21:35:23.348Z,0.77
2022-08-25T21:37:53.544Z,1.10
2022-08-25T21:40:22.852Z,0.95
2022-08-25T21:42:52.569Z,1.25
2022-08-25T21:45:21.927Z,1.52
2022-08-25T21:47:50.089Z,0.68
2022-08-25T21:50:20.463Z,0.95
2022-08-25T21:52:48.577Z,1.20
2022-08-25T21:55:23.315Z,1.00
2022-08-25T21:57:51.384Z,0.75
2022-08-25T22:00:21.394Z,0.70
2022-08-25T22:02:50.034Z,1.27
2022-08-25T22:05:18.168Z,0.85
2022-08-25T22:07:45.822Z,1.45
2022-08-25T22:10:16.663Z,0.80
2022-08-25T22:12:47.908Z,0.90
2022-08-25T22:15:19.206Z,0.90
2022-08-25T22:17:48.043Z,0.80
2022-08-25T22:20:18.141Z,0.90
2022-08-25T22:22:46.137Z,1.00
2022-08-25T22:25:14.339Z,1.10
2022-08-25T22:27:42.656Z,1.20
2022-08-25T22:30:11.551Z,1.00
2022-08-25T22:32:39.164Z,1.40
2022-08-25T22:35:08.074Z,1.17
2022-08-25T22:37:37.492Z,1.15
2022-08-25T22:40:06.055Z,1.42
2022-08-25T22:42:33.757Z,1.23
2022-08-25T22:45:01.468Z,1.20
2022-08-25T22:47:29.312Z,1.20
2022-08-25T22:49:59.066Z,1.30
2022-08-25T22:52:33.200Z,1.25
2022-08-25T22:55:03.061Z,1.30
2022-08-25T22:57:31.089Z,1.33
2022-08-25T22:59:59.329Z,1.60
2022-08-25T23:02:27.685Z,1.45
2022-08-25T23:04:58.165Z,1.15
2022-08-25T23:07:29.370Z,1.60
2022-08-25T23:10:02.605Z,1.60
2022-08-25T23:12:30.562Z,1.80
2022-08-25T23:14:58.251Z,1.23
2022-08-25T23:17:29.144Z,1.25
2022-08-25T23:19:56.783Z,1.60
2022-08-25T23:22:24.404Z,1.27
2022-08-25T23:24:54.704Z,1.10
2022-08-25T23:27:22.641Z,1.20
2022-08-25T23:29:51.348Z,1.60
2022-08-25T23:32:20.419Z,1.52
2022-08-25T23:34:48.307Z,1.38
2022-08-25T23:37:18.365Z,1.02
2022-08-25T23:39:49.620Z,1.40
2022-08-25T23:42:19.758Z,1.35
2022-08-25T23:44:49.239Z,1.05
2022-08-25T23:47:17.861Z,1.33
2022-08-25T23:49:48.106Z,1.25
2022-08-25T23:52:17.532Z,1.38
2022-08-25T23:54:46.331Z,1.48
2022-08-25T23:57:14.032Z,1.40
2022-08-25T23:59:43.251Z,1.30
